»·PEaware :: DAL272 KSNA-KPHX

DAL272 :: KSNA-KPHX

FLIGHT INFORMATION

Flight Status: Arrived
Operator:
Delta Air Lines
More flights by this operator :: More flights under this callsign
Pilot: Kevin M. (7)
Aircraft: BOEING 737-800
(B738)
More flights by this aircraft type
Origin: KSNA John Wayne-Orange Co
United States
Destination: KPHX Phoenix Sky Harbor Intl
United States
More flights between these airports :: More routes between these airports
Route: STAYY2 CNERY BLH HYDRR1
File this flight plan on PilotEdge
Remarks:
Altitude:
(Current/Filed)
33,000ft
Speed:
(Current/Filed)
468kts
Departed: 26-Aug-19 05:33 PM
Arrived: 26-Aug-19 06:22 PM
Distance/Time
Traveled:
293nm/0:49
Distance/Time
To Go:
Arrived

Flight Plot

Page will automatically refresh every two minutes.

Flight plan parsing failed; only flown route is shown


Map Options




Map Legend


Flown Route
Filed Route
Departure Airport
Arrival Airport
Navaid (VOR, NDB)
Fix

Horizontal Profiles

Position Reports

Time Latitude Longitude Heading Altitude Ground
Speed
26-Aug-19 17:13 33.679023 -117.862629 117 64ft 0kts
26-Aug-19 17:14 33.679023 -117.862629 117 64ft 0kts
26-Aug-19 17:16 33.679023 -117.862629 117 64ft 0kts
26-Aug-19 17:16 33.679023 -117.862629 117 64ft 0kts
26-Aug-19 17:17 33.679023 -117.862629 117 64ft 0kts
26-Aug-19 17:19 33.679023 -117.862629 117 64ft 0kts
26-Aug-19 17:19 33.679023 -117.862629 117 64ft 0kts
26-Aug-19 17:20 33.679023 -117.862629 117 64ft 0kts
26-Aug-19 17:21 33.679023 -117.862629 117 64ft 0kts
26-Aug-19 17:22 33.679024 -117.862629 117 64ft 0kts
26-Aug-19 17:23 33.679176 -117.862988 117 64ft 0kts
26-Aug-19 17:24 33.679052 -117.863357 26 64ft 0kts
26-Aug-19 17:25 33.679052 -117.863357 26 64ft 0kts
26-Aug-19 17:26 33.680061 -117.862709 28 64ft 8kts
26-Aug-19 17:27 33.681012 -117.863882 296 64ft 5kts
26-Aug-19 17:28 33.681131 -117.864162 297 64ft 0kts
26-Aug-19 17:29 33.681154 -117.864217 297 64ft 0kts
26-Aug-19 17:30 33.681277 -117.865277 208 64ft 0kts
26-Aug-19 17:31 33.681276 -117.865278 208 64ft 0kts
26-Aug-19 17:32 33.659356 -117.879022 206 880ft 165kts
26-Aug-19 17:33 33.609541 -117.889728 196 2990ft 208kts
26-Aug-19 17:34 33.546319 -117.872864 160 5176ft 277kts
26-Aug-19 17:35 33.488686 -117.815722 113 8877ft 284kts
26-Aug-19 17:36 33.479764 -117.717260 80 11092ft 340kts
26-Aug-19 17:37 33.524719 -117.604813 60 13097ft 400kts
26-Aug-19 17:38 33.562644 -117.477718 87 16054ft 419kts
26-Aug-19 17:39 33.538386 -117.339388 111 18720ft 435kts
26-Aug-19 17:40 33.504043 -117.197924 95 21325ft 453kts
26-Aug-19 17:41 33.500477 -117.043947 92 23620ft 472kts
26-Aug-19 17:42 33.497275 -116.883478 92 25640ft 492kts
26-Aug-19 17:43 33.495483 -116.717310 91 27938ft 501kts
26-Aug-19 17:44 33.493489 -116.551002 92 30572ft 498kts
26-Aug-19 17:45 33.491251 -116.386109 91 32721ft 497kts
26-Aug-19 17:46 33.488784 -116.222369 92 32742ft 490kts
26-Aug-19 17:47 33.487189 -116.058718 87 32746ft 492kts
26-Aug-19 17:48 33.521959 -115.908877 70 32743ft 493kts
26-Aug-19 17:49 33.567591 -115.753707 71 32743ft 493kts
26-Aug-19 17:50 33.611183 -115.597789 77 32747ft 492kts
26-Aug-19 17:51 33.614680 -115.434558 93 32744ft 489kts
26-Aug-19 17:52 33.610297 -115.271452 93 32764ft 491kts
26-Aug-19 17:53 33.605962 -115.107614 92 32780ft 494kts
26-Aug-19 17:54 33.601370 -114.942098 92 32780ft 498kts
26-Aug-19 17:55 33.596403 -114.776039 93 32780ft 497kts
26-Aug-19 17:56 33.568501 -114.619392 104 32787ft 484kts
26-Aug-19 17:57 33.536720 -114.458322 103 32767ft 495kts
26-Aug-19 17:58 33.505291 -114.299330 104 29230ft 496kts
26-Aug-19 17:59 33.473995 -114.141999 104 26224ft 498kts
26-Aug-19 18:00 33.442518 -113.984297 104 23870ft 480kts
26-Aug-19 18:01 33.410900 -113.826457 104 21888ft 475kts
26-Aug-19 18:02 33.380044 -113.673335 104 21811ft 478kts
26-Aug-19 18:03 33.348745 -113.519256 104 21811ft 475kts
26-Aug-19 18:04 33.321110 -113.372213 102 21810ft 461kts
26-Aug-19 18:05 33.294640 -113.217616 101 21529ft 476kts
26-Aug-19 18:06 33.273568 -113.065940 95 20459ft 436kts
26-Aug-19 18:07 33.277921 -112.925560 88 18619ft 398kts
26-Aug-19 18:08 33.283025 -112.785729 83 17005ft 450kts
26-Aug-19 18:09 33.296938 -112.638966 82 15941ft 445kts
26-Aug-19 18:10 33.310652 -112.492642 82 13705ft 433kts
26-Aug-19 18:11 33.323484 -112.353436 82 11074ft 401kts
26-Aug-19 18:12 33.334483 -112.233737 83 9659ft 323kts
26-Aug-19 18:13 33.343658 -112.132264 83 8995ft 286kts
26-Aug-19 18:14 33.347126 -112.033354 91 7592ft 307kts
26-Aug-19 18:15 33.348430 -111.935039 88 5868ft 283kts
26-Aug-19 18:16 33.351205 -111.850744 77 5112ft 224kts
26-Aug-19 18:17 33.399114 -111.837683 309 3548ft 204kts
26-Aug-19 18:18 33.426734 -111.896108 280 2997ft 201kts
26-Aug-19 18:19 33.428840 -111.951913 268 2093ft 149kts
26-Aug-19 18:20 33.428856 -112.001827 268 1175ft 150kts
26-Aug-19 18:21 33.429955 -112.020176 92 1119ft 16kts
26-Aug-19 18:22 33.431988 -112.015603 30 1123ft 0kts
26-Aug-19 18:23 33.432890 -112.012904 90 1127ft 26kts
26-Aug-19 18:24 33.433418 -112.009358 88 1133ft 0kts

Navigation Log

Ident Type
Flight plan parsing failed, navigation log unavailable